N7CVZ Weather Reports


Display with metric or nautical units.
time (UTC)temp
F
wind
direction
speed
MPH
gust
MPH
rain 1hr
in
rain 24hr
in
rain mn
in
humidity
%
barometer
mb
20190418153119 54 115 0.0 1.0 0.00 0.00 0.00 83 1025.3
20190418151639 51 109 0.0 3.0 0.00 0.00 0.00 85 1025.0
20190418150133 50 105 0.0 0.0 0.00 0.00 0.00 88 1025.1
20190418144649 51 58 0.0 1.0 0.00 0.00 0.00 89 1025.0
20190418143204 49 109 0.0 3.0 0.00 0.00 0.00 92 1025.1
20190418141631 48 99 0.0 1.0 0.00 0.00 0.00 91 1025.2
20190418140201 49 103 0.0 0.0 0.00 0.00 0.00 92 1025.3
20190418134558 48 96 0.0 0.0 0.00 0.00 0.00 95 1025.1
20190418133109 47 98 0.0 0.0 0.00 0.00 0.00 96 1025.1
20190418131625 46 75 0.0 0.0 0.00 0.00 0.00 97 1025.1
20190418130209 46 74 0.0 0.0 0.00 0.00 0.00 97 1025.1
20190418124620 44 115 0.0 0.0 0.00 0.00 0.00 97 1025.5
20190418123135 45 115 0.0 0.0 0.00 0.00 0.00 97 1025.4
20190418121709 44 115 0.0 0.0 0.00 0.00 0.00 96 1025.5
20190418120133 44 115 0.0 0.0 0.00 0.00 0.00 96 1025.7
20190418114741 45 115 0.0 0.0 0.00 0.00 0.00 96 1025.8
20190418113202 45 115 0.0 0.0 0.00 0.00 0.00 96 1025.7
20190418111607 45 115 0.0 0.0 0.00 0.00 0.00 95 1025.7
20190418110208 45 115 0.0 0.0 0.00 0.00 0.00 95 1025.8
20190418104629 47 115 0.0 0.0 0.00 0.00 0.00 95 1025.9
20190418103056 47 128 0.0 0.0 0.00 0.00 0.00 95 1025.9
20190418101635 46 109 0.0 0.0 0.00 0.00 0.00 95 1025.9
20190418100009 46 87 0.0 0.0 0.00 0.00 0.00 95 1026.1
20190418094506 46 87 0.0 0.0 0.00 0.00 0.00 95 1026.3
20190418093003 46 87 0.0 0.0 0.00 0.00 0.00 95 1026.3
20190418091502 46 87 0.0 0.0 0.00 0.00 0.00 95 1026.4
20190418090107 46 87 0.0 0.0 0.00 0.00 0.00 94 1026.5
20190418084657 47 87 0.0 0.0 0.00 0.00 0.00 94 1026.6
20190418083150 47 87 0.0 0.0 0.00 0.00 0.00 95 1026.7
20190418081610 46 338 0.0 0.0 0.00 0.00 0.00 95 1026.8
20190418074738 45 338 0.0 0.0 0.00 0.00 0.00 94 1026.9
20190418073138 46 338 0.0 0.0 0.00 0.00 0.00 93 1027.0
20190418071640 47 338 0.0 0.0 0.00 0.00 0.00 93 1026.9
20190418070139 47 338 0.0 0.0 0.00 0.00 0.00 93 1026.9
20190418064805 46 338 0.0 0.0 0.00 0.00 0.00 93 1026.8
20190418063230 47 338 0.0 0.0 0.00 0.00 0.00 93 1026.9
20190418061620 47 338 0.0 0.0 0.00 0.00 0.00 93 1026.9
20190418060131 47 338 0.0 0.0 0.00 0.00 0.00 93 1026.9
20190418054631 47 338 0.0 0.0 0.00 0.00 0.00 93 1027.0
20190418053134 47 338 0.0 0.0 0.00 0.00 0.00 92 1027.1
20190418051615 47 338 0.0 0.0 0.00 0.00 0.00 90 1027.1
20190418050138 48 338 0.0 0.0 0.00 0.00 0.00 90 1027.0
20190418044704 48 338 0.0 0.0 0.00 0.00 0.00 89 1027.0
20190418043220 48 338 0.0 0.0 0.00 0.00 0.00 89 1026.9
20190418041710 48 338 0.0 0.0 0.00 0.00 0.00 88 1026.8
20190418040120 48 338 0.0 0.0 0.00 0.00 0.00 89 1026.6
20190418034748 49 338 0.0 0.0 0.00 0.00 0.00 87 1026.6
20190418033145 49 338 0.0 0.0 0.00 0.00 0.00 87 1026.4
20190418031629 50 338 0.0 0.0 0.00 0.00 0.00 86 1026.3
20190418030121 51 338 0.0 0.0 0.00 0.00 0.00 82 1026.3
20190418024543 53 338 0.0 0.0 0.00 0.00 0.00 76 1026.3
20190418023121 56 338 0.0 0.0 0.00 0.00 0.00 71 1026.3
20190418021629 58 338 0.0 0.0 0.00 0.00 0.00 68 1026.4
20190418020151 59 338 0.0 0.0 0.00 0.00 0.00 64 1026.4
20190418014639 60 338 0.0 0.0 0.00 0.00 0.00 64 1026.5
20190418013243 60 338 0.0 0.0 0.00 0.00 0.00 63 1026.5
20190418011644 61 338 0.0 0.0 0.00 0.00 0.00 64 1026.6
20190418010128 61 18 0.0 0.0 0.00 0.00 0.00 63 1026.4
20190418004621 60 292 0.0 0.0 0.00 0.00 0.00 63 1026.6
20190418003138 61 291 0.0 0.0 0.00 0.00 0.00 64 1026.7
20190418001634 61 348 0.0 0.0 0.00 0.00 0.00 66 1026.8
20190418000107 61 5 0.0 0.0 0.00 0.00 0.00 65 1026.9
20190417234618 61 313 0.0 0.0 0.00 0.00 0.00 64 1027.1
20190417233143 61 40 0.0 0.0 0.00 0.00 0.00 64 1027.2
20190417231559 61 340 0.0 0.0 0.00 0.00 0.00 68 1027.4
20190417230130 61 277 0.0 0.0 0.00 0.00 0.00 66 1027.4
20190417224640 61 271 0.0 0.0 0.00 0.00 0.00 69 1027.7
20190417223146 61 340 0.0 0.0 0.00 0.00 0.00 68 1027.9
20190417221701 60 297 0.0 0.0 0.00 0.00 0.00 69 1027.9
20190417220218 60 338 0.0 1.0 0.00 0.00 0.00 73 1028.1
20190417214626 59 335 0.0 0.0 0.00 0.00 0.00 73 1028.3
20190417213150 59 5 0.0 1.0 0.00 0.00 0.00 78 1028.3
20190417211638 57 19 0.0 0.0 0.00 0.00 0.00 80 1028.4
20190417210056 58 236 0.0 0.0 0.00 0.00 0.00 75 1028.5
20190417204603 58 9 0.0 0.0 0.00 0.00 0.00 77 1028.6
20190417203128 54 344 0.0 0.0 0.00 0.00 0.00 81 1028.7
20190417201643 54 251 0.0 1.0 0.00 0.00 0.00 84 1028.8
20190417200042 54 104 0.0 2.0 0.00 0.00 0.00 83 1028.9
20190417194612 55 272 0.0 0.0 0.00 0.00 0.00 81 1028.8
20190417193052 55 149 0.0 1.0 0.00 0.00 0.00 80 1028.8
20190417191602 55 216 0.0 0.0 0.00 0.00 0.00 84 1028.9
20190417190231 55 252 0.0 0.0 0.00 0.00 0.00 85 1028.8
20190417184658 52 277 0.0 0.0 0.00 0.00 0.00 90 1028.8
20190417183204 52 175 0.0 0.0 0.00 0.00 0.00 89 1028.8
20190417181645 52 238 0.0 0.0 0.00 0.00 0.00 91 1028.6
20190417180128 52 283 0.0 0.0 0.00 0.00 0.00 91 1028.4
20190417174713 52 248 0.0 0.0 0.00 0.00 0.00 92 1028.2
20190417173236 51 219 0.0 0.0 0.00 0.00 0.00 94 1028.1
20190417171715 51 275 0.0 0.0 0.00 0.00 0.00 96 1027.9
20190417170151 50 213 0.0 0.0 0.00 0.00 0.00 96 1027.8
20190417164613 49 273 0.0 0.0 0.00 0.00 0.00 96 1027.8
20190417163050 49 252 0.0 0.0 0.00 0.00 0.00 97 1027.6
20190417161603 49 248 0.0 0.0 0.00 0.00 0.00 96 1027.5
20190417160001 48 248 0.0 0.0 0.00 0.00 0.00 97 1027.4
20190417154657 48 205 0.0 0.0 0.00 0.00 0.00 97 1027.4